Time;durP1;ratioP1;P1;durP2;ratioP2;P2;SDS_P1;SDS_P2;PMS_P1;PMS_P2;Temp;Humidity;BMP_temperature;BMP_pressure;BME280_temperature;BME280_humidity;BME280_pressure;Samples;Min_cycle;Max_cycle;Signal;HPM_P1;HPM_P2
2023/07/12 00:02:22;;;;;;;4.83;2.03;;;;;;;;;;5083890;27;20023;-45
2023/07/12 00:04:47;;;;;;;3.17;1.60;;;;;;;;;;5095757;28;20379;-45
2023/07/12 00:07:13;;;;;;;4.37;2.00;;;;;;;;;;5100942;27;20099;-45
2023/07/12 00:09:38;;;;;;;4.60;2.00;;;;;;;;;;5105889;27;20035;-45
2023/07/12 00:12:03;;;;;;;4.80;1.90;;;;;;;;;;5089637;27;20062;-45
2023/07/12 00:14:28;;;;;;;6.38;2.30;;;;;;;;;;5097825;28;20273;-45
2023/07/12 00:16:54;;;;;;;4.03;2.00;;;;;;;;;;5096107;28;20028;-45
2023/07/12 00:19:19;;;;;;;2.97;1.80;;;;;;;;;;5103526;28;20031;-45
2023/07/12 00:21:44;;;;;;;5.83;2.20;;;;;;;;;;5100160;28;20547;-45
2023/07/12 00:24:10;;;;;;;4.18;2.00;;;;;;;;;;5100984;28;20024;-44
2023/07/12 00:26:36;;;;;;;5.22;2.65;;;;;;;;;;5092324;28;20034;-44
2023/07/12 00:29:02;;;;;;;4.43;2.50;;;;;;;;;;5095371;28;20500;-44
2023/07/12 00:31:28;;;;;;;4.53;2.45;;;;;;;;;;5097869;28;20015;-45
2023/07/12 00:33:53;;;;;;;5.72;2.03;;;;;;;;;;5104629;28;20382;-45
2023/07/12 00:36:20;;;;;;;5.53;2.50;;;;;;;;;;5099265;28;20149;-45
2023/07/12 00:38:46;;;;;;;4.90;2.33;;;;;;;;;;5100639;28;20786;-45
2023/07/12 00:41:43;;;;;;;3.60;2.00;;;;;;;;;;5100550;28;20027;-44
2023/07/12 00:44:10;;;;;;;3.08;1.85;;;;;;;;;;5105448;27;20074;-45
2023/07/12 00:46:38;;;;;;;7.97;2.63;;;;;;;;;;5101586;27;20016;-45
2023/07/12 00:49:03;;;;;;;4.25;2.20;;;;;;;;;;5100452;27;20437;-45
2023/07/12 00:51:29;;;;;;;3.97;1.93;;;;;;;;;;5098492;27;20484;-45
2023/07/12 00:53:55;;;;;;;4.75;2.00;;;;;;;;;;5097401;28;20318;-45
2023/07/12 00:56:20;;;;;;;5.55;2.20;;;;;;;;;;5098667;28;20184;-45
2023/07/12 00:58:52;;;;;;;4.90;2.33;;;;;;;;;;5085526;28;20039;-45
2023/07/12 01:01:18;;;;;;;6.18;2.33;;;;;;;;;;5090441;28;20019;-45
2023/07/12 01:03:44;;;;;;;5.85;2.40;;;;;;;;;;5081657;28;20019;-45
2023/07/12 01:06:11;;;;;;;6.88;2.38;;;;;;;;;;5093498;28;20081;-45
2023/07/12 01:08:41;;;;;;;5.15;2.30;;;;;;;;;;5091465;28;20065;-44
2023/07/12 01:11:07;;;;;;;4.78;2.72;;;;;;;;;;5089602;28;20027;-45
2023/07/12 01:13:33;;;;;;;6.47;2.85;;;;;;;;;;5095414;28;20024;-45
2023/07/12 01:15:59;;;;;;;4.57;2.08;;;;;;;;;;5091762;28;20035;-45
2023/07/12 01:18:24;;;;;;;6.38;2.80;;;;;;;;;;5090359;28;20058;-45
2023/07/12 01:21:09;;;;;;;3.33;2.40;;;;;;;;;;5095765;28;20265;-45
2023/07/12 01:23:35;;;;;;;4.47;2.42;;;;;;;;;;5099338;28;20933;-45
2023/07/12 01:26:24;;;;;;;4.35;2.55;;;;;;;;;;5095275;27;20069;-45
2023/07/12 01:28:52;;;;;;;5.03;2.40;;;;;;;;;;5090387;28;20167;-45
2023/07/12 01:31:17;;;;;;;3.95;2.03;;;;;;;;;;5100274;28;20018;-45
2023/07/12 01:33:43;;;;;;;5.88;2.58;;;;;;;;;;5091652;28;20016;-45
2023/07/12 01:36:08;;;;;;;6.40;2.33;;;;;;;;;;5090883;28;20429;-45
2023/07/12 01:38:34;;;;;;;5.63;2.60;;;;;;;;;;5090350;28;20401;-45
2023/07/12 01:40:59;;;;;;;8.02;3.17;;;;;;;;;;5094067;27;20124;-44
2023/07/12 01:43:24;;;;;;;4.70;2.30;;;;;;;;;;5089816;28;20036;-47
2023/07/12 01:45:49;;;;;;;5.90;2.37;;;;;;;;;;5091265;28;20102;-45
2023/07/12 01:48:15;;;;;;;5.90;2.40;;;;;;;;;;5093182;28;20023;-45
2023/07/12 01:50:41;;;;;;;6.13;2.47;;;;;;;;;;5096076;28;20020;-45
2023/07/12 01:53:07;;;;;;;6.00;2.63;;;;;;;;;;5090027;28;20020;-45
2023/07/12 01:55:32;;;;;;;7.80;2.78;;;;;;;;;;5100240;27;20051;-45
2023/07/12 01:57:57;;;;;;;6.30;2.93;;;;;;;;;;5090457;28;20032;-45
2023/07/12 02:00:23;;;;;;;5.57;2.53;;;;;;;;;;5096140;27;20119;-45
2023/07/12 02:02:48;;;;;;;4.73;2.13;;;;;;;;;;5093733;27;24767;-45
2023/07/12 02:05:13;;;;;;;3.57;2.20;;;;;;;;;;5103308;27;20081;-45
2023/07/12 02:07:38;;;;;;;6.63;2.47;;;;;;;;;;5095852;27;20019;-45
2023/07/12 02:10:08;;;;;;;6.57;2.73;;;;;;;;;;5090070;28;20401;-45
2023/07/12 02:12:34;;;;;;;6.82;2.55;;;;;;;;;;5096932;28;20024;-45
2023/07/12 02:14:59;;;;;;;4.87;2.57;;;;;;;;;;5093363;28;20044;-45
2023/07/12 02:17:24;;;;;;;6.93;3.67;;;;;;;;;;5101040;27;20039;-45
2023/07/12 02:19:49;;;;;;;5.93;3.50;;;;;;;;;;5101058;27;20042;-45
2023/07/12 02:22:15;;;;;;;4.80;2.70;;;;;;;;;;5103274;28;20070;-45
2023/07/12 02:24:40;;;;;;;6.93;2.90;;;;;;;;;;5105186;27;20028;-44
2023/07/12 02:27:05;;;;;;;5.83;2.43;;;;;;;;;;5098647;27;20034;-45
2023/07/12 02:29:30;;;;;;;5.60;2.57;;;;;;;;;;5102634;27;20060;-45
2023/07/12 02:31:56;;;;;;;4.20;2.63;;;;;;;;;;5101075;28;20020;-45
2023/07/12 02:34:21;;;;;;;5.90;4.27;;;;;;;;;;5100772;27;20500;-45
2023/07/12 02:36:46;;;;;;;5.07;2.40;;;;;;;;;;5103261;27;20080;-45
2023/07/12 02:39:11;;;;;;;2.20;1.47;;;;;;;;;;5104851;28;20024;-45
2023/07/12 02:41:37;;;;;;;6.60;2.53;;;;;;;;;;5101208;27;20038;-45
2023/07/12 02:44:02;;;;;;;4.43;2.27;;;;;;;;;;5098308;27;20286;-44
2023/07/12 02:46:27;;;;;;;5.80;3.03;;;;;;;;;;5095150;27;20102;-45
2023/07/12 02:48:52;;;;;;;6.30;2.90;;;;;;;;;;5100041;28;20861;-45
2023/07/12 02:51:18;;;;;;;10.63;2.83;;;;;;;;;;5099933;27;20038;-44
2023/07/12 02:53:43;;;;;;;8.30;3.95;;;;;;;;;;5097568;27;20051;-44
2023/07/12 02:56:08;;;;;;;6.67;2.90;;;;;;;;;;5099445;28;20132;-44
2023/07/12 02:58:34;;;;;;;7.07;3.40;;;;;;;;;;5093118;28;20031;-44
2023/07/12 03:00:59;;;;;;;6.63;3.17;;;;;;;;;;5094225;27;20031;-44
2023/07/12 03:03:26;;;;;;;4.60;3.13;;;;;;;;;;5095876;28;20024;-44
2023/07/12 03:05:51;;;;;;;7.10;3.03;;;;;;;;;;5095854;28;20470;-44
2023/07/12 03:08:16;;;;;;;4.83;3.20;;;;;;;;;;5100765;28;20043;-44
2023/07/12 03:10:42;;;;;;;7.87;3.10;;;;;;;;;;5097410;27;20111;-46
2023/07/12 03:13:09;;;;;;;7.40;3.33;;;;;;;;;;5097401;27;20019;-45
2023/07/12 03:15:36;;;;;;;6.85;3.30;;;;;;;;;;5092210;28;20039;-44
2023/07/12 03:18:02;;;;;;;6.53;3.08;;;;;;;;;;5097207;27;20470;-45
2023/07/12 03:20:27;;;;;;;6.60;4.40;;;;;;;;;;5096106;27;20036;-45
2023/07/12 03:22:53;;;;;;;7.70;4.03;;;;;;;;;;5096867;27;20043;-45
2023/07/12 03:25:18;;;;;;;6.23;2.73;;;;;;;;;;5089952;28;20477;-44
2023/07/12 03:27:43;;;;;;;6.83;3.00;;;;;;;;;;5097171;27;20024;-46
2023/07/12 03:30:09;;;;;;;5.78;2.65;;;;;;;;;;5102210;27;20347;-44
2023/07/12 03:32:34;;;;;;;7.78;3.08;;;;;;;;;;5089229;28;20493;-46
2023/07/12 03:34:59;;;;;;;7.83;3.07;;;;;;;;;;5093127;28;20497;-44
2023/07/12 03:37:25;;;;;;;4.03;2.50;;;;;;;;;;5100165;27;20056;-44
2023/07/12 03:39:50;;;;;;;4.83;2.77;;;;;;;;;;5091373;27;20986;-45
2023/07/12 03:42:16;;;;;;;5.80;2.97;;;;;;;;;;5089662;28;20024;-44
2023/07/12 03:44:41;;;;;;;6.68;3.45;;;;;;;;;;5098007;27;20050;-44
2023/07/12 03:47:06;;;;;;;7.23;3.33;;;;;;;;;;5096630;28;20046;-45
2023/07/12 03:49:32;;;;;;;10.70;3.53;;;;;;;;;;5095341;28;20106;-45
2023/07/12 03:51:57;;;;;;;7.10;3.65;;;;;;;;;;5096315;28;20023;-44
2023/07/12 03:54:23;;;;;;;7.67;2.97;;;;;;;;;;5096000;28;20439;-44
2023/07/12 03:56:48;;;;;;;8.00;3.42;;;;;;;;;;5096445;27;20278;-44
2023/07/12 03:59:13;;;;;;;6.63;3.17;;;;;;;;;;5094951;27;20483;-44
2023/07/12 04:01:39;;;;;;;4.35;3.00;;;;;;;;;;5089625;28;20364;-44
2023/07/12 04:04:04;;;;;;;8.07;3.33;;;;;;;;;;5101128;28;20034;-44
2023/07/12 04:06:29;;;;;;;6.75;3.70;;;;;;;;;;5093957;28;20032;-45
2023/07/12 04:08:55;;;;;;;6.27;3.70;;;;;;;;;;5092965;27;20016;-44
2023/07/12 04:11:25;;;;;;;6.80;3.37;;;;;;;;;;5095548;27;20364;-44
2023/07/12 04:13:50;;;;;;;7.20;3.13;;;;;;;;;;5090481;27;20026;-45
2023/07/12 04:16:15;;;;;;;5.68;3.28;;;;;;;;;;5100343;28;20024;-44
2023/07/12 04:18:41;;;;;;;6.25;3.20;;;;;;;;;;5100959;27;20019;-43
2023/07/12 04:21:06;;;;;;;6.07;3.35;;;;;;;;;;5104626;28;20087;-44
2023/07/12 04:23:31;;;;;;;5.82;3.60;;;;;;;;;;5093794;28;20019;-44
2023/07/12 04:26:01;;;;;;;11.50;4.13;;;;;;;;;;5101845;28;20429;-45
2023/07/12 04:28:26;;;;;;;6.35;3.55;;;;;;;;;;5096851;28;20266;-45
2023/07/12 04:30:52;;;;;;;7.50;3.35;;;;;;;;;;5097642;28;20035;-44
2023/07/12 04:33:17;;;;;;;5.53;3.20;;;;;;;;;;5100722;28;20028;-44
2023/07/12 04:35:42;;;;;;;7.57;3.20;;;;;;;;;;5102914;28;20269;-45
2023/07/12 04:38:07;;;;;;;5.87;3.40;;;;;;;;;;5105204;28;20019;-44
2023/07/12 04:40:33;;;;;;;7.67;3.30;;;;;;;;;;5102952;27;20441;-45
2023/07/12 04:42:58;;;;;;;6.37;3.43;;;;;;;;;;5105365;28;20042;-44
2023/07/12 04:45:23;;;;;;;6.60;3.00;;;;;;;;;;5103975;28;20080;-44
2023/07/12 04:47:49;;;;;;;7.77;3.93;;;;;;;;;;5104546;28;20258;-44
2023/07/12 04:50:16;;;;;;;12.97;4.23;;;;;;;;;;5094862;28;20277;-44
2023/07/12 04:52:41;;;;;;;7.13;3.60;;;;;;;;;;5105079;28;20050;-44
2023/07/12 04:55:19;;;;;;;8.67;3.33;;;;;;;;;;5107116;28;20645;-44
2023/07/12 04:57:44;;;;;;;4.70;3.63;;;;;;;;;;5097917;27;20035;-44
2023/07/12 05:00:12;;;;;;;7.53;3.30;;;;;;;;;;5097831;27;20036;-44
2023/07/12 05:02:37;;;;;;;8.15;3.47;;;;;;;;;;5088322;28;20032;-44
2023/07/12 05:05:02;;;;;;;6.90;3.60;;;;;;;;;;5091971;28;20031;-45
2023/07/12 05:07:31;;;;;;;7.60;3.85;;;;;;;;;;5102678;27;20019;-45
2023/07/12 05:09:56;;;;;;;11.07;3.58;;;;;;;;;;5091327;28;20035;-45
2023/07/12 05:12:21;;;;;;;8.87;4.87;;;;;;;;;;5096866;28;20026;-44
2023/07/12 05:14:47;;;;;;;7.83;4.60;;;;;;;;;;5090274;28;20404;-44
2023/07/12 05:17:12;;;;;;;9.95;4.60;;;;;;;;;;5092649;28;20020;-44
2023/07/12 05:19:37;;;;;;;11.40;6.27;;;;;;;;;;5092132;28;20039;-45
2023/07/12 05:22:02;;;;;;;12.05;5.05;;;;;;;;;;5097827;28;20042;-44
2023/07/12 05:24:28;;;;;;;7.55;4.45;;;;;;;;;;5093256;28;20031;-45
2023/07/12 05:26:55;;;;;;;11.93;4.10;;;;;;;;;;5098805;27;20023;-45
2023/07/12 05:29:21;;;;;;;12.52;6.03;;;;;;;;;;5103120;28;20031;-44
2023/07/12 05:31:46;;;;;;;11.23;7.00;;;;;;;;;;5103174;28;20020;-44
2023/07/12 05:34:11;;;;;;;7.23;4.40;;;;;;;;;;5098136;28;20019;-46
2023/07/12 05:36:36;;;;;;;10.47;5.43;;;;;;;;;;5092885;28;20277;-44
2023/07/12 05:39:04;;;;;;;9.87;4.53;;;;;;;;;;5093832;28;20032;-46
2023/07/12 05:41:29;;;;;;;10.52;4.25;;;;;;;;;;5096140;28;20046;-44
2023/07/12 05:43:54;;;;;;;18.40;4.77;;;;;;;;;;5093663;28;20240;-46
2023/07/12 05:46:20;;;;;;;10.70;5.55;;;;;;;;;;5092759;28;20759;-44
2023/07/12 05:48:45;;;;;;;7.25;4.35;;;;;;;;;;5090527;28;20019;-45
2023/07/12 05:51:11;;;;;;;7.78;4.72;;;;;;;;;;5086371;28;20023;-44
2023/07/12 05:53:36;;;;;;;10.85;6.03;;;;;;;;;;5090379;28;20106;-46
2023/07/12 05:56:03;;;;;;;6.83;4.37;;;;;;;;;;5095226;28;20030;-44
2023/07/12 05:58:28;;;;;;;8.80;5.63;;;;;;;;;;5091344;28;20024;-44
2023/07/12 06:01:03;;;;;;;12.95;6.15;;;;;;;;;;5098550;28;20039;-46
2023/07/12 06:03:29;;;;;;;12.50;5.93;;;;;;;;;;5096398;28;20040;-45
2023/07/12 06:05:55;;;;;;;9.60;4.80;;;;;;;;;;5098149;28;20058;-44
2023/07/12 06:08:20;;;;;;;9.20;5.00;;;;;;;;;;5099260;28;20091;-44
2023/07/12 06:10:46;;;;;;;11.52;6.28;;;;;;;;;;5091924;28;20051;-45
2023/07/12 06:13:11;;;;;;;7.20;3.70;;;;;;;;;;5090812;28;20016;-44
2023/07/12 06:15:37;;;;;;;8.02;5.45;;;;;;;;;;5092481;28;20032;-44
2023/07/12 06:18:02;;;;;;;11.93;5.72;;;;;;;;;;5096133;28;20513;-44
2023/07/12 06:20:27;;;;;;;10.50;5.80;;;;;;;;;;5100989;28;20092;-44
2023/07/12 06:22:53;;;;;;;11.90;5.03;;;;;;;;;;5096644;28;20625;-45
2023/07/12 06:25:19;;;;;;;9.00;6.00;;;;;;;;;;5099734;28;20132;-44
2023/07/12 06:27:45;;;;;;;12.05;5.35;;;;;;;;;;5090699;28;20285;-45
2023/07/12 06:30:10;;;;;;;13.77;5.83;;;;;;;;;;5091940;28;20020;-44
2023/07/12 06:32:37;;;;;;;13.18;5.30;;;;;;;;;;5090675;28;20293;-46
2023/07/12 06:35:03;;;;;;;9.18;5.72;;;;;;;;;;5096494;28;20032;-45
2023/07/12 06:37:28;;;;;;;10.43;5.97;;;;;;;;;;5086260;28;20482;-44
2023/07/12 06:39:53;;;;;;;13.43;6.50;;;;;;;;;;5095031;27;20024;-46
2023/07/12 06:42:19;;;;;;;13.10;5.67;;;;;;;;;;5102213;27;20048;-44
2023/07/12 06:44:44;;;;;;;10.70;6.18;;;;;;;;;;5093168;22;20040;-46
2023/07/12 06:47:09;;;;;;;11.30;5.85;;;;;;;;;;5058821;28;20086;-46
2023/07/12 06:49:35;;;;;;;8.93;4.33;;;;;;;;;;5066485;28;20013;-46
2023/07/12 06:52:00;;;;;;;17.05;8.00;;;;;;;;;;5065572;28;20056;-46
2023/07/12 06:54:25;;;;;;;11.77;6.83;;;;;;;;;;5068653;28;20025;-46
2023/07/12 06:56:51;;;;;;;12.20;6.13;;;;;;;;;;5069014;28;20464;-46
2023/07/12 06:59:16;;;;;;;12.53;6.10;;;;;;;;;;5068511;28;20278;-46
2023/07/12 07:01:41;;;;;;;10.17;6.53;;;;;;;;;;5061192;28;20017;-46
2023/07/12 07:04:06;;;;;;;12.00;6.37;;;;;;;;;;5051124;28;20020;-46
2023/07/12 07:06:32;;;;;;;10.57;6.60;;;;;;;;;;5066847;28;20389;-46
2023/07/12 07:08:59;;;;;;;13.60;6.07;;;;;;;;;;5068272;28;20025;-46
2023/07/12 07:11:25;;;;;;;10.68;6.40;;;;;;;;;;5061892;28;20032;-46
2023/07/12 07:13:51;;;;;;;8.73;5.93;;;;;;;;;;5065623;28;20016;-46
2023/07/12 07:16:16;;;;;;;44.13;26.02;;;;;;;;;;5066702;28;20044;-46
2023/07/12 07:18:42;;;;;;;14.35;8.45;;;;;;;;;;5071276;28;20092;-46
2023/07/12 07:21:07;;;;;;;13.55;6.43;;;;;;;;;;5070951;28;20074;-46
2023/07/12 07:23:33;;;;;;;12.13;6.90;;;;;;;;;;5065407;28;20029;-46
2023/07/12 07:26:02;;;;;;;10.30;7.07;;;;;;;;;;5070729;28;20025;-45
2023/07/12 07:28:28;;;;;;;10.82;6.32;;;;;;;;;;5061341;28;20479;-46
2023/07/12 07:30:57;;;;;;;11.90;6.93;;;;;;;;;;5044860;28;20028;-46
2023/07/12 07:33:22;;;;;;;12.30;6.60;;;;;;;;;;5065338;28;20282;-46
2023/07/12 07:35:47;;;;;;;9.50;5.88;;;;;;;;;;5067179;28;20038;-46
2023/07/12 07:38:13;;;;;;;10.30;6.03;;;;;;;;;;5067855;28;20367;-46
2023/07/12 07:40:41;;;;;;;9.02;5.90;;;;;;;;;;5064529;28;20286;-46
2023/07/12 07:43:10;;;;;;;11.35;6.10;;;;;;;;;;5070331;28;20375;-46
2023/07/12 07:45:35;;;;;;;11.32;5.72;;;;;;;;;;5063308;28;20086;-46
2023/07/12 07:48:01;;;;;;;12.77;6.70;;;;;;;;;;5053731;28;20017;-46
2023/07/12 07:50:27;;;;;;;10.77;6.50;;;;;;;;;;5062437;28;20114;-46
2023/07/12 07:52:53;;;;;;;11.27;6.78;;;;;;;;;;5070326;28;20462;-46
2023/07/12 07:55:19;;;;;;;10.32;6.72;;;;;;;;;;5069965;28;20115;-46
2023/07/12 07:57:44;;;;;;;14.18;7.70;;;;;;;;;;5065033;28;20138;-46
2023/07/12 08:00:11;;;;;;;11.25;7.00;;;;;;;;;;5068985;28;20058;-46
2023/07/12 08:02:36;;;;;;;11.27;6.85;;;;;;;;;;5069704;28;20032;-46
2023/07/12 08:05:02;;;;;;;11.35;7.18;;;;;;;;;;5064114;28;20094;-46
2023/07/12 08:07:27;;;;;;;11.73;7.82;;;;;;;;;;5066023;28;20104;-46
2023/07/12 08:09:52;;;;;;;13.43;8.43;;;;;;;;;;5068302;28;20023;-46
2023/07/12 08:12:18;;;;;;;14.57;8.97;;;;;;;;;;5069107;28;20029;-46
2023/07/12 08:14:43;;;;;;;17.97;8.27;;;;;;;;;;5061170;28;20302;-46
2023/07/12 08:17:10;;;;;;;23.77;8.43;;;;;;;;;;5063779;28;20279;-46
2023/07/12 08:19:35;;;;;;;16.35;8.45;;;;;;;;;;5058331;28;20020;-46
2023/07/12 08:22:00;;;;;;;16.27;8.60;;;;;;;;;;5057398;28;20024;-46
2023/07/12 08:24:26;;;;;;;20.57;9.53;;;;;;;;;;5067239;28;20021;-46
2023/07/12 08:26:51;;;;;;;20.03;9.07;;;;;;;;;;5067052;28;20539;-46
2023/07/12 08:29:16;;;;;;;14.47;8.63;;;;;;;;;;5060244;28;20201;-46
2023/07/12 08:31:41;;;;;;;20.60;7.47;;;;;;;;;;5055246;28;20056;-46
2023/07/12 08:34:07;;;;;;;13.10;7.60;;;;;;;;;;5067753;28;20652;-46
2023/07/12 08:36:32;;;;;;;9.30;4.63;;;;;;;;;;5064356;28;20035;-47
2023/07/12 08:38:57;;;;;;;13.90;7.10;;;;;;;;;;5064998;28;20433;-46
2023/07/12 08:41:24;;;;;;;15.47;7.47;;;;;;;;;;5054192;28;20024;-47
2023/07/12 08:43:50;;;;;;;14.15;8.68;;;;;;;;;;5060309;28;20064;-46
2023/07/12 08:46:20;;;;;;;12.70;6.28;;;;;;;;;;5061846;28;20545;-46
2023/07/12 08:48:51;;;;;;;9.00;5.65;;;;;;;;;;5063908;28;20020;-46
2023/07/12 08:51:19;;;;;;;12.93;6.50;;;;;;;;;;5052989;28;20028;-46
2023/07/12 08:53:45;;;;;;;9.98;5.80;;;;;;;;;;5062388;28;20441;-46
2023/07/12 08:56:11;;;;;;;9.00;5.88;;;;;;;;;;5061207;28;20103;-46
2023/07/12 08:58:40;;;;;;;12.43;5.03;;;;;;;;;;5064199;28;20032;-47
2023/07/12 09:01:12;;;;;;;9.23;4.75;;;;;;;;;;5046835;28;20029;-46
2023/07/12 09:03:37;;;;;;;10.10;5.63;;;;;;;;;;5058924;28;21174;-46
2023/07/12 09:06:09;;;;;;;9.70;5.37;;;;;;;;;;5047862;28;20041;-46
2023/07/12 09:08:36;;;;;;;8.35;5.75;;;;;;;;;;5063077;28;20346;-47
2023/07/12 09:11:01;;;;;;;8.13;5.28;;;;;;;;;;5056965;28;20067;-46
2023/07/12 09:13:37;;;;;;;11.77;5.55;;;;;;;;;;5059992;28;20044;-46
2023/07/12 09:16:03;;;;;;;9.45;5.80;;;;;;;;;;5061887;28;20116;-46
2023/07/12 09:18:37;;;;;;;9.95;5.80;;;;;;;;;;5064470;28;20431;-46
2023/07/12 09:21:19;;;;;;;14.85;6.53;;;;;;;;;;5041923;28;20032;-46
2023/07/12 09:23:44;;;;;;;11.00;6.13;;;;;;;;;;5063240;28;20078;-46
2023/07/12 09:26:19;;;;;;;8.65;4.63;;;;;;;;;;5062578;28;20029;-46
2023/07/12 09:28:44;;;;;;;12.57;5.35;;;;;;;;;;5061985;28;20021;-46
2023/07/12 09:31:14;;;;;;;7.87;4.70;;;;;;;;;;5043814;28;20031;-47
2023/07/12 09:33:39;;;;;;;9.30;5.32;;;;;;;;;;5063306;28;20402;-46
2023/07/12 09:36:05;;;;;;;10.98;5.35;;;;;;;;;;5063640;28;20115;-46
2023/07/12 09:38:34;;;;;;;7.07;4.00;;;;;;;;;;5066375;28;20017;-46
2023/07/12 09:41:07;;;;;;;10.10;4.43;;;;;;;;;;5058898;28;20033;-46
2023/07/12 09:43:36;;;;;;;8.18;4.55;;;;;;;;;;5058526;28;20056;-46
2023/07/12 09:46:17;;;;;;;8.82;4.38;;;;;;;;;;5054540;28;20154;-47
2023/07/12 09:48:43;;;;;;;8.55;4.20;;;;;;;;;;5061880;28;20429;-46
2023/07/12 09:51:08;;;;;;;6.63;4.22;;;;;;;;;;5057337;28;20028;-46
2023/07/12 09:53:37;;;;;;;7.27;4.50;;;;;;;;;;5056584;28;20098;-46
2023/07/12 09:56:11;;;;;;;7.75;4.85;;;;;;;;;;5064340;28;20488;-46
2023/07/12 09:58:43;;;;;;;9.35;4.38;;;;;;;;;;5047183;28;20557;-46
2023/07/12 10:01:21;;;;;;;7.95;4.40;;;;;;;;;;5061660;28;20033;-47
2023/07/12 10:03:51;;;;;;;10.38;4.55;;;;;;;;;;5061483;28;20020;-46
2023/07/12 10:06:16;;;;;;;6.97;4.38;;;;;;;;;;5061224;28;20099;-46
2023/07/12 10:08:46;;;;;;;7.27;4.47;;;;;;;;;;5065714;28;20044;-46
2023/07/12 10:11:26;;;;;;;6.95;4.25;;;;;;;;;;5064655;28;20021;-46
2023/07/12 10:13:56;;;;;;;7.65;5.03;;;;;;;;;;5056944;28;20756;-46
2023/07/12 10:16:24;;;;;;;7.72;4.97;;;;;;;;;;5067950;28;20039;-46
2023/07/12 10:18:49;;;;;;;8.05;4.47;;;;;;;;;;5070013;28;20416;-46
2023/07/12 10:21:23;;;;;;;6.40;4.38;;;;;;;;;;5071647;28;20028;-46
2023/07/12 10:23:51;;;;;;;7.93;4.45;;;;;;;;;;5064247;28;20029;-47
2023/07/12 10:26:16;;;;;;;7.10;4.13;;;;;;;;;;5067083;28;20070;-46
2023/07/12 10:28:44;;;;;;;10.47;5.17;;;;;;;;;;5065911;28;20024;-47
2023/07/12 10:31:30;;;;;;;9.93;5.05;;;;;;;;;;5054261;28;20278;-46
2023/07/12 10:34:01;;;;;;;7.93;4.30;;;;;;;;;;5058130;28;20086;-47
2023/07/12 10:36:26;;;;;;;9.95;4.32;;;;;;;;;;5058630;28;20029;-46
2023/07/12 10:38:52;;;;;;;9.87;4.87;;;;;;;;;;5067022;28;20033;-46
2023/07/12 10:41:23;;;;;;;6.20;4.32;;;;;;;;;;5051781;28;20279;-47
2023/07/12 10:43:56;;;;;;;4.22;2.35;;;;;;;;;;5061910;28;20020;-46
2023/07/12 10:46:29;;;;;;;9.88;4.00;;;;;;;;;;5067589;28;20032;-47
2023/07/12 10:48:55;;;;;;;6.13;3.67;;;;;;;;;;5062003;28;20024;-47
2023/07/12 10:51:26;;;;;;;6.70;3.92;;;;;;;;;;5067288;28;20025;-46
2023/07/12 10:53:52;;;;;;;7.35;4.25;;;;;;;;;;5057412;28;20020;-46
2023/07/12 10:56:23;;;;;;;6.03;3.88;;;;;;;;;;5049858;28;20078;-47
2023/07/12 10:58:59;;;;;;;6.47;3.03;;;;;;;;;;5054187;28;20097;-47
2023/07/12 11:01:45;;;;;;;5.65;2.97;;;;;;;;;;5056622;28;20501;-47
2023/07/12 11:04:10;;;;;;;9.65;4.00;;;;;;;;;;5053541;28;20073;-46
2023/07/12 11:06:52;;;;;;;5.63;3.20;;;;;;;;;;5048380;28;20028;-47
2023/07/12 11:09:18;;;;;;;4.95;3.05;;;;;;;;;;5058566;28;20052;-46
2023/07/12 11:11:44;;;;;;;4.43;2.97;;;;;;;;;;5061745;28;20845;-47
2023/07/12 11:14:12;;;;;;;8.07;3.90;;;;;;;;;;5066593;28;20025;-46
2023/07/12 11:16:43;;;;;;;7.15;3.60;;;;;;;;;;5055955;28;20072;-46
2023/07/12 11:19:28;;;;;;;5.82;3.75;;;;;;;;;;5062177;28;20033;-46
2023/07/12 11:21:58;;;;;;;5.78;2.80;;;;;;;;;;5057523;28;20020;-46
2023/07/12 11:24:23;;;;;;;6.47;2.95;;;;;;;;;;5051710;28;20036;-47
2023/07/12 11:26:57;;;;;;;6.43;3.00;;;;;;;;;;5062444;28;20021;-46
2023/07/12 11:29:22;;;;;;;5.78;2.97;;;;;;;;;;5063491;28;20036;-47
2023/07/12 11:31:49;;;;;;;6.50;3.28;;;;;;;;;;5061382;28;20009;-46
2023/07/12 11:34:16;;;;;;;5.85;3.13;;;;;;;;;;5065743;28;20029;-46
2023/07/12 11:36:46;;;;;;;5.35;2.85;;;;;;;;;;5064158;28;20053;-46
2023/07/12 11:39:19;;;;;;;6.03;3.10;;;;;;;;;;5068967;28;20024;-46
2023/07/12 11:41:51;;;;;;;6.68;2.88;;;;;;;;;;5062677;28;20024;-46
2023/07/12 11:44:17;;;;;;;6.35;2.90;;;;;;;;;;5068091;28;20044;-46
2023/07/12 11:46:43;;;;;;;15.07;4.13;;;;;;;;;;5065280;28;20460;-46
2023/07/12 11:49:16;;;;;;;7.78;3.40;;;;;;;;;;5069009;28;20069;-46
2023/07/12 11:51:43;;;;;;;8.68;3.08;;;;;;;;;;5063357;28;20092;-47
2023/07/12 11:54:17;;;;;;;7.85;2.78;;;;;;;;;;5065330;28;20100;-46
2023/07/12 11:56:42;;;;;;;6.43;3.13;;;;;;;;;;5052796;28;20029;-46
2023/07/12 11:59:15;;;;;;;7.57;2.80;;;;;;;;;;5067310;28;20087;-46
2023/07/12 12:01:42;;;;;;;5.30;2.42;;;;;;;;;;5060951;28;20395;-46
2023/07/12 12:04:07;;;;;;;6.25;2.83;;;;;;;;;;5070669;28;20029;-46
2023/07/12 12:06:33;;;;;;;4.33;2.10;;;;;;;;;;5070988;28;20031;-47
2023/07/12 12:08:58;;;;;;;5.35;2.28;;;;;;;;;;5070678;28;20257;-46
2023/07/12 12:11:27;;;;;;;4.40;2.28;;;;;;;;;;5052237;28;20020;-47
2023/07/12 12:13:53;;;;;;;5.43;2.40;;;;;;;;;;5064767;28;20028;-46
2023/07/12 12:16:25;;;;;;;10.32;4.25;;;;;;;;;;5054203;28;20021;-46
2023/07/12 12:18:52;;;;;;;3.00;1.60;;;;;;;;;;5058310;28;20043;-46
2023/07/12 12:21:18;;;;;;;3.55;1.83;;;;;;;;;;5062919;28;20027;-47
2023/07/12 12:23:49;;;;;;;4.18;1.33;;;;;;;;;;5056493;28;20040;-47
2023/07/12 12:26:24;;;;;;;3.35;1.75;;;;;;;;;;5064159;28;20028;-46
2023/07/12 12:28:56;;;;;;;3.33;1.85;;;;;;;;;;5061545;28;20550;-46
2023/07/12 12:31:21;;;;;;;;;;;;;;;;;;5066623;28;20547;-46
2023/07/12 12:33:48;;;;;;;3.53;1.83;;;;;;;;;;5062533;28;19913;-46
2023/07/12 12:36:19;;;;;;;2.13;1.35;;;;;;;;;;5061720;28;20044;-46
2023/07/12 12:38:54;;;;;;;2.73;1.53;;;;;;;;;;5047165;28;20028;-46
2023/07/12 12:41:20;;;;;;;5.10;1.50;;;;;;;;;;5068643;28;20021;-46
2023/07/12 12:43:55;;;;;;;8.85;1.58;;;;;;;;;;5058814;28;20028;-46
2023/07/12 12:46:20;;;;;;;4.55;1.67;;;;;;;;;;5069377;28;20107;-46
2023/07/12 12:48:45;;;;;;;2.67;1.60;;;;;;;;;;5066506;28;20158;-46
2023/07/12 12:51:12;;;;;;;4.60;1.30;;;;;;;;;;5069785;28;20019;-46
2023/07/12 12:53:37;;;;;;;2.58;1.35;;;;;;;;;;5063585;28;20025;-46
2023/07/12 12:56:03;;;;;;;3.13;1.50;;;;;;;;;;5051150;28;20043;-47
2023/07/12 12:58:28;;;;;;;3.97;1.27;;;;;;;;;;5052898;28;20029;-46
2023/07/12 13:00:54;;;;;;;3.77;1.33;;;;;;;;;;5064781;28;20637;-46
2023/07/12 13:03:20;;;;;;;1.73;0.70;;;;;;;;;;5064803;28;20339;-46
2023/07/12 13:05:45;;;;;;;4.97;1.50;;;;;;;;;;5066340;28;20070;-46
2023/07/12 13:08:16;;;;;;;3.35;1.15;;;;;;;;;;5068484;28;20123;-46
2023/07/12 13:10:41;;;;;;;2.67;1.27;;;;;;;;;;5049705;28;20497;-46
2023/07/12 13:13:12;;;;;;;3.60;1.13;;;;;;;;;;5064977;28;20032;-46
2023/07/12 13:15:37;;;;;;;2.60;1.13;;;;;;;;;;5064108;28;20286;-47
2023/07/12 13:18:04;;;;;;;4.00;1.40;;;;;;;;;;5062116;28;20032;-46
2023/07/12 13:20:30;;;;;;;4.05;1.00;;;;;;;;;;5062770;28;20275;-46
2023/07/12 13:22:56;;;;;;;3.33;1.13;;;;;;;;;;5066133;28;20392;-47
2023/07/12 13:25:21;;;;;;;3.03;1.17;;;;;;;;;;5063138;28;20532;-47
2023/07/12 13:27:50;;;;;;;3.73;1.67;;;;;;;;;;5067245;28;20748;-46
2023/07/12 13:30:18;;;;;;;2.90;1.17;;;;;;;;;;5059306;28;20278;-47
2023/07/12 13:32:43;;;;;;;2.65;1.30;;;;;;;;;;5064013;28;20028;-46
2023/07/12 13:35:19;;;;;;;3.20;1.60;;;;;;;;;;5051353;28;20039;-46
2023/07/12 13:37:44;;;;;;;5.43;1.17;;;;;;;;;;5058659;28;20024;-46
2023/07/12 13:40:14;;;;;;;3.05;1.10;;;;;;;;;;5046991;28;20040;-46
2023/07/12 13:42:41;;;;;;;7.57;1.10;;;;;;;;;;5066144;28;20100;-46
2023/07/12 13:45:09;;;;;;;2.40;1.08;;;;;;;;;;5066389;28;20517;-46
2023/07/12 13:47:35;;;;;;;3.40;1.52;;;;;;;;;;5056534;28;20091;-46
2023/07/12 13:50:00;;;;;;;3.92;1.35;;;;;;;;;;5058096;28;20056;-46
2023/07/12 13:52:26;;;;;;;1.90;0.90;;;;;;;;;;5065030;28;20028;-46
2023/07/12 13:54:51;;;;;;;2.53;0.98;;;;;;;;;;5064608;28;20491;-46
2023/07/12 13:57:19;;;;;;;4.03;1.30;;;;;;;;;;5068123;28;20471;-47
2023/07/12 13:59:45;;;;;;;2.55;1.40;;;;;;;;;;5065727;28;20258;-46
2023/07/12 14:02:16;;;;;;;4.97;2.00;;;;;;;;;;5063816;28;20036;-46
2023/07/12 14:04:41;;;;;;;2.00;1.15;;;;;;;;;;5065284;28;20086;-46
2023/07/12 14:07:10;;;;;;;5.97;1.17;;;;;;;;;;5065309;28;20071;-46
2023/07/12 14:09:35;;;;;;;15.18;1.60;;;;;;;;;;5064880;28;20027;-46
2023/07/12 14:12:01;;;;;;;2.22;0.80;;;;;;;;;;5072367;28;20393;-46
2023/07/12 14:14:26;;;;;;;3.50;1.10;;;;;;;;;;5069995;28;20051;-46
2023/07/12 14:16:51;;;;;;;2.83;1.00;;;;;;;;;;5069210;28;20021;-48
2023/07/12 14:19:17;;;;;;;5.00;1.37;;;;;;;;;;5067656;28;20021;-46
2023/07/12 14:21:42;;;;;;;2.37;1.10;;;;;;;;;;5048315;28;20295;-47
2023/07/12 14:24:09;;;;;;;3.27;1.20;;;;;;;;;;5071236;28;20501;-46
2023/07/12 14:26:34;;;;;;;4.55;2.45;;;;;;;;;;5067408;28;20343;-47
2023/07/12 14:28:59;;;;;;;2.70;1.03;;;;;;;;;;5068254;28;20048;-46
2023/07/12 14:31:25;;;;;;;5.50;1.00;;;;;;;;;;5069365;28;20270;-46
2023/07/12 14:33:52;;;;;;;2.65;1.25;;;;;;;;;;5064490;28;20016;-47
2023/07/12 14:36:19;;;;;;;3.38;1.10;;;;;;;;;;5064042;28;20082;-47
2023/07/12 14:38:45;;;;;;;2.92;1.00;;;;;;;;;;5063931;28;20029;-46
2023/07/12 14:41:14;;;;;;;3.67;1.40;;;;;;;;;;5067738;28;20474;-46